sensor_id;sensor_type;location;lat;lon;timestamp;P1;durP1;ratioP1;P2;durP2;ratioP2
40164;SDS011;25882;51.120;17.248;2023-04-03T02:13:54;70.93;;;26.40;;
40164;SDS011;25882;51.120;17.248;2023-04-03T02:16:20;40.08;;;16.55;;
40164;SDS011;25882;51.120;17.248;2023-04-03T02:18:46;17.63;;;7.53;;
40164;SDS011;25882;51.120;17.248;2023-04-03T02:21:12;44.30;;;17.60;;
40164;SDS011;25882;51.120;17.248;2023-04-03T02:23:40;7.03;;;3.08;;
40164;SDS011;25882;51.120;17.248;2023-04-03T02:26:07;8.23;;;2.72;;
40164;SDS011;25882;51.120;17.248;2023-04-03T02:28:34;29.08;;;11.30;;
40164;SDS011;25882;51.120;17.248;2023-04-03T02:31:00;29.17;;;10.35;;
40164;SDS011;25882;51.120;17.248;2023-04-03T02:33:27;33.65;;;11.23;;
40164;SDS011;25882;51.120;17.248;2023-04-03T02:35:53;34.00;;;13.25;;
40164;SDS011;25882;51.120;17.248;2023-04-03T02:38:20;33.45;;;10.55;;
40164;SDS011;25882;51.120;17.248;2023-04-03T02:40:47;25.80;;;10.43;;
40164;SDS011;25882;51.120;17.248;2023-04-03T02:43:13;12.13;;;5.38;;
40164;SDS011;25882;51.120;17.248;2023-04-03T02:45:40;17.98;;;6.72;;
40164;SDS011;25882;51.120;17.248;2023-04-03T02:48:06;21.73;;;8.57;;
40164;SDS011;25882;51.120;17.248;2023-04-03T02:50:31;26.35;;;11.65;;
40164;SDS011;25882;51.120;17.248;2023-04-03T02:52:58;24.40;;;9.75;;
40164;SDS011;25882;51.120;17.248;2023-04-03T02:55:23;16.17;;;4.75;;
40164;SDS011;25882;51.120;17.248;2023-04-03T02:57:51;21.90;;;7.07;;
40164;SDS011;25882;51.120;17.248;2023-04-03T03:00:17;13.35;;;3.13;;
40164;SDS011;25882;51.120;17.248;2023-04-03T03:02:44;12.13;;;4.18;;
40164;SDS011;25882;51.120;17.248;2023-04-03T03:05:10;16.50;;;5.75;;
40164;SDS011;25882;51.120;17.248;2023-04-03T03:07:36;14.52;;;5.72;;
40164;SDS011;25882;51.120;17.248;2023-04-03T03:10:02;11.05;;;3.72;;
40164;SDS011;25882;51.120;17.248;2023-04-03T03:12:29;12.13;;;3.75;;
40164;SDS011;25882;51.120;17.248;2023-04-03T03:14:56;7.47;;;3.40;;
40164;SDS011;25882;51.120;17.248;2023-04-03T03:17:22;11.38;;;3.30;;
40164;SDS011;25882;51.120;17.248;2023-04-03T03:19:48;10.18;;;3.88;;
40164;SDS011;25882;51.120;17.248;2023-04-03T03:22:15;11.75;;;2.90;;
40164;SDS011;25882;51.120;17.248;2023-04-03T03:24:41;6.97;;;2.65;;
40164;SDS011;25882;51.120;17.248;2023-04-03T03:27:07;16.23;;;7.18;;
40164;SDS011;25882;51.120;17.248;2023-04-03T03:29:33;17.27;;;8.45;;
40164;SDS011;25882;51.120;17.248;2023-04-03T03:32:01;16.08;;;10.13;;
40164;SDS011;25882;51.120;17.248;2023-04-03T03:34:27;14.27;;;8.95;;
40164;SDS011;25882;51.120;17.248;2023-04-03T03:36:53;16.17;;;5.90;;
40164;SDS011;25882;51.120;17.248;2023-04-03T03:39:18;12.68;;;5.95;;
40164;SDS011;25882;51.120;17.248;2023-04-03T03:41:45;19.60;;;7.57;;
40164;SDS011;25882;51.120;17.248;2023-04-03T03:44:11;17.90;;;7.22;;
40164;SDS011;25882;51.120;17.248;2023-04-03T03:46:37;17.15;;;6.82;;
40164;SDS011;25882;51.120;17.248;2023-04-03T03:49:04;61.28;;;17.60;;
40164;SDS011;25882;51.120;17.248;2023-04-03T03:51:30;78.50;;;18.60;;
40164;SDS011;25882;51.120;17.248;2023-04-03T03:53:56;58.70;;;17.88;;
40164;SDS011;25882;51.120;17.248;2023-04-03T03:56:22;32.67;;;9.32;;
40164;SDS011;25882;51.120;17.248;2023-04-03T03:58:49;29.63;;;9.52;;
40164;SDS011;25882;51.120;17.248;2023-04-03T04:01:15;30.00;;;8.50;;
40164;SDS011;25882;51.120;17.248;2023-04-03T04:03:43;27.60;;;8.48;;
40164;SDS011;25882;51.120;17.248;2023-04-03T04:06:10;29.33;;;8.90;;
40164;SDS011;25882;51.120;17.248;2023-04-03T04:08:37;28.52;;;10.82;;
40164;SDS011;25882;51.120;17.248;2023-04-03T04:11:02;52.17;;;15.57;;
40164;SDS011;25882;51.120;17.248;2023-04-03T04:13:29;35.53;;;10.68;;
40164;SDS011;25882;51.120;17.248;2023-04-03T04:15:55;37.85;;;10.52;;
40164;SDS011;25882;51.120;17.248;2023-04-03T04:18:21;29.92;;;9.05;;
40164;SDS011;25882;51.120;17.248;2023-04-03T04:20:48;38.47;;;8.80;;
40164;SDS011;25882;51.120;17.248;2023-04-03T04:23:16;38.78;;;12.32;;
40164;SDS011;25882;51.120;17.248;2023-04-03T04:25:43;28.08;;;8.98;;
40164;SDS011;25882;51.120;17.248;2023-04-03T04:28:10;44.60;;;14.00;;
40164;SDS011;25882;51.120;17.248;2023-04-03T04:30:36;37.47;;;12.15;;
40164;SDS011;25882;51.120;17.248;2023-04-03T04:33:02;28.30;;;10.95;;
40164;SDS011;25882;51.120;17.248;2023-04-03T04:35:28;65.32;;;20.67;;
40164;SDS011;25882;51.120;17.248;2023-04-03T04:37:54;26.85;;;9.93;;
40164;SDS011;25882;51.120;17.248;2023-04-03T04:40:22;22.05;;;8.13;;
40164;SDS011;25882;51.120;17.248;2023-04-03T04:42:48;23.98;;;7.93;;
40164;SDS011;25882;51.120;17.248;2023-04-03T04:45:14;23.95;;;8.32;;
40164;SDS011;25882;51.120;17.248;2023-04-03T04:47:43;20.23;;;5.30;;
40164;SDS011;25882;51.120;17.248;2023-04-03T04:50:10;20.30;;;5.68;;
40164;SDS011;25882;51.120;17.248;2023-04-03T04:52:37;16.48;;;4.85;;
40164;SDS011;25882;51.120;17.248;2023-04-03T04:55:03;14.18;;;5.55;;
40164;SDS011;25882;51.120;17.248;2023-04-03T04:57:31;14.13;;;4.53;;
40164;SDS011;25882;51.120;17.248;2023-04-03T04:59:58;11.15;;;3.75;;
40164;SDS011;25882;51.120;17.248;2023-04-03T05:02:24;17.35;;;8.05;;
40164;SDS011;25882;51.120;17.248;2023-04-03T05:04:50;43.38;;;12.65;;
40164;SDS011;25882;51.120;17.248;2023-04-03T05:07:17;29.67;;;9.10;;
40164;SDS011;25882;51.120;17.248;2023-04-03T05:09:43;14.88;;;3.85;;
40164;SDS011;25882;51.120;17.248;2023-04-03T05:12:10;13.27;;;3.90;;
40164;SDS011;25882;51.120;17.248;2023-04-03T05:14:37;16.00;;;4.32;;
40164;SDS011;25882;51.120;17.248;2023-04-03T05:17:04;7.68;;;3.25;;
40164;SDS011;25882;51.120;17.248;2023-04-03T05:19:30;12.70;;;3.53;;
40164;SDS011;25882;51.120;17.248;2023-04-03T05:21:56;10.57;;;3.35;;
40164;SDS011;25882;51.120;17.248;2023-04-03T05:24:22;8.30;;;3.60;;
40164;SDS011;25882;51.120;17.248;2023-04-03T05:26:49;13.40;;;3.20;;
40164;SDS011;25882;51.120;17.248;2023-04-03T05:29:14;10.10;;;2.88;;
40164;SDS011;25882;51.120;17.248;2023-04-03T05:31:42;11.05;;;3.15;;
40164;SDS011;25882;51.120;17.248;2023-04-03T05:34:08;8.00;;;3.03;;
40164;SDS011;25882;51.120;17.248;2023-04-03T05:36:35;14.70;;;4.50;;
40164;SDS011;25882;51.120;17.248;2023-04-03T05:39:01;19.25;;;7.45;;
40164;SDS011;25882;51.120;17.248;2023-04-03T05:41:27;18.77;;;5.30;;
40164;SDS011;25882;51.120;17.248;2023-04-03T05:43:53;12.07;;;4.32;;
40164;SDS011;25882;51.120;17.248;2023-04-03T05:46:19;11.48;;;3.50;;
40164;SDS011;25882;51.120;17.248;2023-04-03T05:48:47;15.60;;;4.03;;
40164;SDS011;25882;51.120;17.248;2023-04-03T05:51:15;10.70;;;4.20;;
40164;SDS011;25882;51.120;17.248;2023-04-03T05:53:43;13.38;;;4.07;;
40164;SDS011;25882;51.120;17.248;2023-04-03T05:56:10;11.48;;;3.70;;
40164;SDS011;25882;51.120;17.248;2023-04-03T05:58:36;10.63;;;4.03;;
40164;SDS011;25882;51.120;17.248;2023-04-03T06:01:02;7.47;;;3.13;;
40164;SDS011;25882;51.120;17.248;2023-04-03T06:03:29;6.85;;;2.45;;
40164;SDS011;25882;51.120;17.248;2023-04-03T06:05:56;8.18;;;2.67;;
40164;SDS011;25882;51.120;17.248;2023-04-03T06:08:22;8.65;;;3.17;;
40164;SDS011;25882;51.120;17.248;2023-04-03T06:10:49;6.70;;;3.03;;
40164;SDS011;25882;51.120;17.248;2023-04-03T06:13:16;5.65;;;3.17;;
40164;SDS011;25882;51.120;17.248;2023-04-03T06:15:43;14.15;;;4.68;;
40164;SDS011;25882;51.120;17.248;2023-04-03T06:18:09;11.52;;;3.15;;
40164;SDS011;25882;51.120;17.248;2023-04-03T06:20:36;5.68;;;3.05;;
40164;SDS011;25882;51.120;17.248;2023-04-03T06:23:04;8.07;;;3.15;;
40164;SDS011;25882;51.120;17.248;2023-04-03T06:25:30;17.95;;;7.10;;
40164;SDS011;25882;51.120;17.248;2023-04-03T06:27:57;41.70;;;18.63;;
40164;SDS011;25882;51.120;17.248;2023-04-03T06:30:23;73.38;;;29.73;;
40164;SDS011;25882;51.120;17.248;2023-04-03T06:32:49;71.18;;;24.70;;
40164;SDS011;25882;51.120;17.248;2023-04-03T06:35:16;29.10;;;11.82;;
40164;SDS011;25882;51.120;17.248;2023-04-03T06:37:42;15.48;;;6.82;;
40164;SDS011;25882;51.120;17.248;2023-04-03T06:40:11;22.52;;;9.52;;
40164;SDS011;25882;51.120;17.248;2023-04-03T06:42:41;51.75;;;22.38;;
40164;SDS011;25882;51.120;17.248;2023-04-03T06:45:07;55.92;;;21.88;;
40164;SDS011;25882;51.120;17.248;2023-04-03T06:47:34;52.72;;;21.13;;
40164;SDS011;25882;51.120;17.248;2023-04-03T06:50:00;30.60;;;11.80;;
40164;SDS011;25882;51.120;17.248;2023-04-03T06:52:26;32.70;;;13.07;;
40164;SDS011;25882;51.120;17.248;2023-04-03T06:54:53;30.25;;;11.05;;
40164;SDS011;25882;51.120;17.248;2023-04-03T06:57:23;72.00;;;24.98;;
40164;SDS011;25882;51.120;17.248;2023-04-03T06:59:50;26.70;;;8.90;;
40164;SDS011;25882;51.120;17.248;2023-04-03T07:02:16;116.85;;;39.58;;
40164;SDS011;25882;51.120;17.248;2023-04-03T07:04:43;60.67;;;21.45;;
40164;SDS011;25882;51.120;17.248;2023-04-03T07:07:09;50.58;;;18.52;;
40164;SDS011;25882;51.120;17.248;2023-04-03T07:09:35;20.70;;;8.73;;
40164;SDS011;25882;51.120;17.248;2023-04-03T07:12:01;49.10;;;17.50;;
40164;SDS011;25882;51.120;17.248;2023-04-03T07:14:29;23.27;;;8.20;;
40164;SDS011;25882;51.120;17.248;2023-04-03T07:16:55;75.32;;;24.45;;
40164;SDS011;25882;51.120;17.248;2023-04-03T07:19:22;71.38;;;22.40;;
40164;SDS011;25882;51.120;17.248;2023-04-03T07:21:49;54.22;;;18.33;;
40164;SDS011;25882;51.120;17.248;2023-04-03T07:24:16;24.42;;;8.75;;
40164;SDS011;25882;51.120;17.248;2023-04-03T07:26:42;23.08;;;9.15;;
40164;SDS011;25882;51.120;17.248;2023-04-03T07:29:10;38.00;;;14.90;;
40164;SDS011;25882;51.120;17.248;2023-04-03T07:31:37;39.33;;;15.05;;
40164;SDS011;25882;51.120;17.248;2023-04-03T07:34:07;36.60;;;13.65;;
40164;SDS011;25882;51.120;17.248;2023-04-03T07:36:32;30.90;;;14.02;;
40164;SDS011;25882;51.120;17.248;2023-04-03T07:38:59;34.05;;;13.55;;
40164;SDS011;25882;51.120;17.248;2023-04-03T07:41:25;27.83;;;11.90;;
40164;SDS011;25882;51.120;17.248;2023-04-03T07:43:51;35.85;;;14.32;;
40164;SDS011;25882;51.120;17.248;2023-04-03T07:46:18;29.25;;;13.15;;
40164;SDS011;25882;51.120;17.248;2023-04-03T07:48:45;20.98;;;10.70;;
40164;SDS011;25882;51.120;17.248;2023-04-03T07:51:11;38.22;;;16.10;;
40164;SDS011;25882;51.120;17.248;2023-04-03T07:53:42;35.47;;;15.85;;
40164;SDS011;25882;51.120;17.248;2023-04-03T07:56:08;37.50;;;18.63;;
40164;SDS011;25882;51.120;17.248;2023-04-03T07:58:35;37.83;;;19.10;;
40164;SDS011;25882;51.120;17.248;2023-04-03T08:01:02;22.38;;;13.10;;
40164;SDS011;25882;51.120;17.248;2023-04-03T08:03:29;31.33;;;15.52;;
40164;SDS011;25882;51.120;17.248;2023-04-03T08:06:00;19.00;;;8.55;;
40164;SDS011;25882;51.120;17.248;2023-04-03T08:08:29;27.00;;;14.60;;
40164;SDS011;25882;51.120;17.248;2023-04-03T08:10:57;23.52;;;13.43;;
40164;SDS011;25882;51.120;17.248;2023-04-03T08:13:24;11.88;;;6.88;;
40164;SDS011;25882;51.120;17.248;2023-04-03T08:15:50;14.88;;;7.15;;
40164;SDS011;25882;51.120;17.248;2023-04-03T08:18:17;24.40;;;11.82;;
40164;SDS011;25882;51.120;17.248;2023-04-03T08:20:44;18.52;;;9.40;;
40164;SDS011;25882;51.120;17.248;2023-04-03T08:23:12;11.82;;;4.93;;
40164;SDS011;25882;51.120;17.248;2023-04-03T08:25:38;6.63;;;4.07;;
40164;SDS011;25882;51.120;17.248;2023-04-03T08:28:05;12.32;;;7.03;;
40164;SDS011;25882;51.120;17.248;2023-04-03T08:30:32;10.60;;;4.57;;
40164;SDS011;25882;51.120;17.248;2023-04-03T08:32:59;12.15;;;5.78;;
40164;SDS011;25882;51.120;17.248;2023-04-03T08:35:26;12.52;;;5.07;;
40164;SDS011;25882;51.120;17.248;2023-04-03T08:37:52;14.65;;;6.85;;
40164;SDS011;25882;51.120;17.248;2023-04-03T08:40:20;9.82;;;5.72;;
40164;SDS011;25882;51.120;17.248;2023-04-03T08:42:49;10.13;;;4.78;;
40164;SDS011;25882;51.120;17.248;2023-04-03T08:45:20;8.93;;;4.07;;
40164;SDS011;25882;51.120;17.248;2023-04-03T08:47:52;8.10;;;2.75;;
40164;SDS011;25882;51.120;17.248;2023-04-03T08:50:23;11.90;;;4.43;;
40164;SDS011;25882;51.120;17.248;2023-04-03T08:52:53;7.32;;;2.88;;
40164;SDS011;25882;51.120;17.248;2023-04-03T08:55:24;4.90;;;2.30;;
40164;SDS011;25882;51.120;17.248;2023-04-03T09:00:22;6.00;;;2.80;;
40164;SDS011;25882;51.120;17.248;2023-04-03T09:02:50;7.03;;;3.42;;
40164;SDS011;25882;51.120;17.248;2023-04-03T09:05:18;7.28;;;3.85;;
40164;SDS011;25882;51.120;17.248;2023-04-03T09:07:47;11.52;;;5.88;;
40164;SDS011;25882;51.120;17.248;2023-04-03T09:10:16;13.17;;;4.40;;
40164;SDS011;25882;51.120;17.248;2023-04-03T09:12:48;5.63;;;3.65;;
